Terminal Aerodrome Forecast
Issued by NWS

Home | Current Version | Previous Version | Text Only | Print | Product List | Glossary On
Versions: 1 2 3 4 5 6 7 8 9 10 11 12 13 14 15 16 17 18 19 20 21
000
FTUS41 KBOX 070916 AAC
TAFHYA
TAF AMD
KHYA 070916Z 0709/0806 04006KT P6SM -RA SCT022 BKN029 OVC045
     FM071000 07007KT P6SM -RA OVC030
     FM071300 06005KT P6SM VCSH OVC025
     FM071400 06005KT P6SM OVC025
     FM072000 00000KT P6SM OVC020
     FM080000 00000KT P6SM BKN015=

USA.gov is the U.S. government's official web portal to all federal, state and local government web resources and services.